Padul, Spain
Current Conditions -  °F | °C
As of 7:30 PM on Friday 31 Oct 2014 (Local Time) from LEGR Reporting Station
Clear Clear  
Wind Chill: 17°   Ceiling: Unl
Heat Index: 17°   Visibility: 6mi
Dew Point: 12°   Wind: 0mph
Humidity: 72%   Direction: NA
Pressure: 30.21"   Gusts: NA
Location:  37.02°N, 3.63°W
Report Text: LEGR 311830Z 00000KT CAVOK 17/12 Q1023
Loading
Personal Weather Stations






























Interactive Weather Map
Tropical Storm Tracking
New forecast layout! Learn more

10-Day Weather Forecast

Advertisements
Track Severe Weather on mobile